sensor_id;sensor_type;location;lat;lon;timestamp;P1;durP1;ratioP1;P2;durP2;ratioP2
24567;SDS011;12731;52.182;8.716;2022-08-19T00:01:47;13.80;;;10.82;;
24567;SDS011;12731;52.182;8.716;2022-08-19T00:06:46;16.15;;;11.50;;
24567;SDS011;12731;52.182;8.716;2022-08-19T00:09:14;16.15;;;11.68;;
24567;SDS011;12731;52.182;8.716;2022-08-19T00:11:41;16.05;;;11.52;;
24567;SDS011;12731;52.182;8.716;2022-08-19T00:14:09;15.57;;;11.50;;
24567;SDS011;12731;52.182;8.716;2022-08-19T00:16:37;14.07;;;10.90;;
24567;SDS011;12731;52.182;8.716;2022-08-19T00:19:04;11.40;;;10.27;;
24567;SDS011;12731;52.182;8.716;2022-08-19T00:21:31;12.80;;;11.15;;
24567;SDS011;12731;52.182;8.716;2022-08-19T00:23:58;14.85;;;10.77;;
24567;SDS011;12731;52.182;8.716;2022-08-19T00:26:25;13.88;;;10.40;;
24567;SDS011;12731;52.182;8.716;2022-08-19T00:28:52;12.98;;;10.85;;
24567;SDS011;12731;52.182;8.716;2022-08-19T00:31:19;13.15;;;10.95;;
24567;SDS011;12731;52.182;8.716;2022-08-19T00:33:46;16.02;;;11.75;;
24567;SDS011;12731;52.182;8.716;2022-08-19T00:36:15;14.15;;;11.30;;
24567;SDS011;12731;52.182;8.716;2022-08-19T00:38:42;14.77;;;11.20;;
24567;SDS011;12731;52.182;8.716;2022-08-19T00:41:10;13.15;;;11.02;;
24567;SDS011;12731;52.182;8.716;2022-08-19T00:43:40;15.95;;;11.48;;
24567;SDS011;12731;52.182;8.716;2022-08-19T00:46:07;15.90;;;11.55;;
24567;SDS011;12731;52.182;8.716;2022-08-19T00:48:34;14.68;;;10.48;;
24567;SDS011;12731;52.182;8.716;2022-08-19T00:51:02;12.82;;;10.90;;
24567;SDS011;12731;52.182;8.716;2022-08-19T00:53:31;15.80;;;11.23;;
24567;SDS011;12731;52.182;8.716;2022-08-19T00:55:58;13.85;;;11.45;;
24567;SDS011;12731;52.182;8.716;2022-08-19T00:58:26;14.13;;;11.25;;
24567;SDS011;12731;52.182;8.716;2022-08-19T01:00:55;13.35;;;11.93;;
24567;SDS011;12731;52.182;8.716;2022-08-19T01:03:21;17.85;;;11.95;;
24567;SDS011;12731;52.182;8.716;2022-08-19T01:05:49;13.70;;;10.70;;
24567;SDS011;12731;52.182;8.716;2022-08-19T01:08:16;15.50;;;12.30;;
24567;SDS011;12731;52.182;8.716;2022-08-19T01:10:48;13.27;;;11.43;;
24567;SDS011;12731;52.182;8.716;2022-08-19T01:13:19;12.85;;;11.35;;
24567;SDS011;12731;52.182;8.716;2022-08-19T01:15:49;11.98;;;10.75;;
24567;SDS011;12731;52.182;8.716;2022-08-19T01:18:18;16.65;;;10.88;;
24567;SDS011;12731;52.182;8.716;2022-08-19T01:20:45;15.77;;;10.98;;
24567;SDS011;12731;52.182;8.716;2022-08-19T01:23:12;13.88;;;11.45;;
24567;SDS011;12731;52.182;8.716;2022-08-19T01:25:50;13.45;;;11.73;;
24567;SDS011;12731;52.182;8.716;2022-08-19T01:28:18;14.90;;;11.75;;
24567;SDS011;12731;52.182;8.716;2022-08-19T01:31:05;17.38;;;12.10;;
24567;SDS011;12731;52.182;8.716;2022-08-19T01:33:33;16.13;;;13.02;;
24567;SDS011;12731;52.182;8.716;2022-08-19T01:36:04;16.17;;;13.07;;
24567;SDS011;12731;52.182;8.716;2022-08-19T01:38:34;15.82;;;13.18;;
24567;SDS011;12731;52.182;8.716;2022-08-19T01:41:10;18.15;;;13.65;;
24567;SDS011;12731;52.182;8.716;2022-08-19T01:43:37;14.48;;;12.93;;
24567;SDS011;12731;52.182;8.716;2022-08-19T01:46:24;14.70;;;12.23;;
24567;SDS011;12731;52.182;8.716;2022-08-19T01:48:50;16.77;;;12.60;;
24567;SDS011;12731;52.182;8.716;2022-08-19T01:51:17;17.15;;;13.07;;
24567;SDS011;12731;52.182;8.716;2022-08-19T01:53:46;16.73;;;13.15;;
24567;SDS011;12731;52.182;8.716;2022-08-19T01:56:13;14.35;;;12.68;;
24567;SDS011;12731;52.182;8.716;2022-08-19T01:58:41;15.68;;;12.82;;
24567;SDS011;12731;52.182;8.716;2022-08-19T02:01:17;15.68;;;12.70;;
24567;SDS011;12731;52.182;8.716;2022-08-19T02:03:43;17.45;;;13.52;;
24567;SDS011;12731;52.182;8.716;2022-08-19T02:06:10;17.35;;;13.88;;
24567;SDS011;12731;52.182;8.716;2022-08-19T02:08:37;17.67;;;13.43;;
24567;SDS011;12731;52.182;8.716;2022-08-19T02:11:04;15.98;;;13.43;;
24567;SDS011;12731;52.182;8.716;2022-08-19T02:13:32;18.83;;;13.88;;
24567;SDS011;12731;52.182;8.716;2022-08-19T02:15:59;17.13;;;13.93;;
24567;SDS011;12731;52.182;8.716;2022-08-19T02:18:29;17.58;;;13.02;;
24567;SDS011;12731;52.182;8.716;2022-08-19T02:20:56;16.58;;;13.30;;
24567;SDS011;12731;52.182;8.716;2022-08-19T02:23:22;16.75;;;13.43;;
24567;SDS011;12731;52.182;8.716;2022-08-19T02:25:49;20.95;;;14.57;;
24567;SDS011;12731;52.182;8.716;2022-08-19T02:28:15;16.95;;;13.30;;
24567;SDS011;12731;52.182;8.716;2022-08-19T02:30:44;14.10;;;12.60;;
24567;SDS011;12731;52.182;8.716;2022-08-19T02:33:10;16.73;;;13.95;;
24567;SDS011;12731;52.182;8.716;2022-08-19T02:35:40;16.40;;;13.65;;
24567;SDS011;12731;52.182;8.716;2022-08-19T02:38:07;16.23;;;13.48;;
24567;SDS011;12731;52.182;8.716;2022-08-19T02:40:53;16.95;;;13.65;;
24567;SDS011;12731;52.182;8.716;2022-08-19T02:43:23;17.73;;;14.65;;
24567;SDS011;12731;52.182;8.716;2022-08-19T02:45:51;18.33;;;15.25;;
24567;SDS011;12731;52.182;8.716;2022-08-19T02:48:18;17.58;;;14.98;;
24567;SDS011;12731;52.182;8.716;2022-08-19T02:50:47;17.48;;;14.55;;
24567;SDS011;12731;52.182;8.716;2022-08-19T02:53:18;17.73;;;13.93;;
24567;SDS011;12731;52.182;8.716;2022-08-19T02:55:46;18.50;;;15.63;;
24567;SDS011;12731;52.182;8.716;2022-08-19T02:58:13;17.70;;;14.15;;
24567;SDS011;12731;52.182;8.716;2022-08-19T03:00:42;17.35;;;14.73;;
24567;SDS011;12731;52.182;8.716;2022-08-19T03:03:15;19.17;;;15.68;;
24567;SDS011;12731;52.182;8.716;2022-08-19T03:05:42;18.90;;;15.57;;
24567;SDS011;12731;52.182;8.716;2022-08-19T03:08:22;19.55;;;16.73;;
24567;SDS011;12731;52.182;8.716;2022-08-19T03:10:50;21.88;;;16.85;;
24567;SDS011;12731;52.182;8.716;2022-08-19T03:13:17;20.20;;;15.82;;
24567;SDS011;12731;52.182;8.716;2022-08-19T03:15:45;18.38;;;15.60;;
24567;SDS011;12731;52.182;8.716;2022-08-19T03:18:13;20.55;;;16.65;;
24567;SDS011;12731;52.182;8.716;2022-08-19T03:20:44;18.52;;;16.08;;
24567;SDS011;12731;52.182;8.716;2022-08-19T03:23:11;20.00;;;15.80;;
24567;SDS011;12731;52.182;8.716;2022-08-19T03:25:42;20.80;;;16.88;;
24567;SDS011;12731;52.182;8.716;2022-08-19T03:28:10;18.52;;;16.52;;
24567;SDS011;12731;52.182;8.716;2022-08-19T03:30:38;21.58;;;16.52;;
24567;SDS011;12731;52.182;8.716;2022-08-19T03:33:09;19.33;;;17.05;;
24567;SDS011;12731;52.182;8.716;2022-08-19T03:35:45;24.10;;;17.92;;
24567;SDS011;12731;52.182;8.716;2022-08-19T03:38:12;22.27;;;19.00;;
24567;SDS011;12731;52.182;8.716;2022-08-19T03:40:38;26.13;;;19.98;;
24567;SDS011;12731;52.182;8.716;2022-08-19T03:43:05;26.15;;;21.83;;
24567;SDS011;12731;52.182;8.716;2022-08-19T03:45:32;27.02;;;21.85;;
24567;SDS011;12731;52.182;8.716;2022-08-19T03:47:58;23.27;;;20.20;;
24567;SDS011;12731;52.182;8.716;2022-08-19T03:50:25;24.38;;;20.05;;
24567;SDS011;12731;52.182;8.716;2022-08-19T03:52:51;24.00;;;21.05;;
24567;SDS011;12731;52.182;8.716;2022-08-19T03:55:18;24.75;;;19.48;;
24567;SDS011;12731;52.182;8.716;2022-08-19T03:57:45;22.77;;;19.27;;
24567;SDS011;12731;52.182;8.716;2022-08-19T04:00:14;24.33;;;19.05;;
24567;SDS011;12731;52.182;8.716;2022-08-19T04:02:41;20.88;;;18.40;;
24567;SDS011;12731;52.182;8.716;2022-08-19T04:05:23;24.65;;;18.10;;
24567;SDS011;12731;52.182;8.716;2022-08-19T04:07:53;24.55;;;20.48;;
24567;SDS011;12731;52.182;8.716;2022-08-19T04:10:20;25.05;;;20.25;;
24567;SDS011;12731;52.182;8.716;2022-08-19T04:12:46;24.65;;;20.10;;
24567;SDS011;12731;52.182;8.716;2022-08-19T04:15:14;24.98;;;19.73;;
24567;SDS011;12731;52.182;8.716;2022-08-19T04:17:41;23.27;;;20.30;;
24567;SDS011;12731;52.182;8.716;2022-08-19T04:20:07;25.60;;;20.35;;
24567;SDS011;12731;52.182;8.716;2022-08-19T04:22:34;26.33;;;20.08;;
24567;SDS011;12731;52.182;8.716;2022-08-19T04:25:00;27.30;;;20.63;;
24567;SDS011;12731;52.182;8.716;2022-08-19T04:27:27;30.52;;;21.67;;
24567;SDS011;12731;52.182;8.716;2022-08-19T04:29:54;31.55;;;22.23;;
24567;SDS011;12731;52.182;8.716;2022-08-19T04:32:21;29.58;;;21.17;;
24567;SDS011;12731;52.182;8.716;2022-08-19T04:34:48;27.88;;;22.42;;
24567;SDS011;12731;52.182;8.716;2022-08-19T04:37:35;29.70;;;23.13;;
24567;SDS011;12731;52.182;8.716;2022-08-19T04:40:03;31.60;;;22.65;;
24567;SDS011;12731;52.182;8.716;2022-08-19T04:42:49;27.80;;;22.15;;
24567;SDS011;12731;52.182;8.716;2022-08-19T04:45:16;30.58;;;23.67;;
24567;SDS011;12731;52.182;8.716;2022-08-19T04:47:43;32.35;;;23.00;;
24567;SDS011;12731;52.182;8.716;2022-08-19T04:50:22;30.25;;;22.70;;
24567;SDS011;12731;52.182;8.716;2022-08-19T04:52:50;26.40;;;21.92;;
24567;SDS011;12731;52.182;8.716;2022-08-19T04:55:17;30.20;;;23.05;;
24567;SDS011;12731;52.182;8.716;2022-08-19T04:57:44;31.02;;;23.65;;
24567;SDS011;12731;52.182;8.716;2022-08-19T05:00:10;27.35;;;21.92;;
24567;SDS011;12731;52.182;8.716;2022-08-19T05:02:37;29.58;;;23.80;;
24567;SDS011;12731;52.182;8.716;2022-08-19T05:05:04;27.70;;;22.38;;
24567;SDS011;12731;52.182;8.716;2022-08-19T05:07:32;27.80;;;22.63;;
24567;SDS011;12731;52.182;8.716;2022-08-19T05:09:59;29.13;;;22.23;;
24567;SDS011;12731;52.182;8.716;2022-08-19T05:12:25;28.45;;;21.02;;
24567;SDS011;12731;52.182;8.716;2022-08-19T05:14:54;26.98;;;21.40;;
24567;SDS011;12731;52.182;8.716;2022-08-19T05:17:22;27.40;;;21.10;;
24567;SDS011;12731;52.182;8.716;2022-08-19T05:19:55;28.38;;;22.70;;
24567;SDS011;12731;52.182;8.716;2022-08-19T05:22:41;27.75;;;22.20;;
24567;SDS011;12731;52.182;8.716;2022-08-19T05:25:09;27.70;;;22.95;;
24567;SDS011;12731;52.182;8.716;2022-08-19T05:27:39;28.50;;;22.77;;
24567;SDS011;12731;52.182;8.716;2022-08-19T05:30:07;30.23;;;22.02;;
24567;SDS011;12731;52.182;8.716;2022-08-19T05:32:33;28.92;;;22.02;;
24567;SDS011;12731;52.182;8.716;2022-08-19T05:35:00;29.27;;;23.30;;
24567;SDS011;12731;52.182;8.716;2022-08-19T05:37:27;29.20;;;22.75;;
24567;SDS011;12731;52.182;8.716;2022-08-19T05:39:54;28.50;;;24.13;;
24567;SDS011;12731;52.182;8.716;2022-08-19T05:42:21;29.17;;;22.50;;
24567;SDS011;12731;52.182;8.716;2022-08-19T05:44:48;28.38;;;23.08;;
24567;SDS011;12731;52.182;8.716;2022-08-19T05:47:15;27.27;;;22.25;;
24567;SDS011;12731;52.182;8.716;2022-08-19T05:49:42;27.95;;;23.38;;
24567;SDS011;12731;52.182;8.716;2022-08-19T05:52:10;30.75;;;23.15;;
24567;SDS011;12731;52.182;8.716;2022-08-19T05:54:39;27.48;;;22.83;;
24567;SDS011;12731;52.182;8.716;2022-08-19T05:57:09;31.77;;;23.25;;
24567;SDS011;12731;52.182;8.716;2022-08-19T05:59:38;29.55;;;22.63;;
24567;SDS011;12731;52.182;8.716;2022-08-19T06:02:05;28.27;;;21.55;;
24567;SDS011;12731;52.182;8.716;2022-08-19T06:04:33;25.67;;;21.65;;
24567;SDS011;12731;52.182;8.716;2022-08-19T06:06:59;24.30;;;20.38;;
24567;SDS011;12731;52.182;8.716;2022-08-19T06:09:38;25.08;;;19.60;;
24567;SDS011;12731;52.182;8.716;2022-08-19T06:12:05;22.30;;;18.95;;
24567;SDS011;12731;52.182;8.716;2022-08-19T06:14:33;24.50;;;18.33;;
24567;SDS011;12731;52.182;8.716;2022-08-19T06:17:07;19.95;;;16.83;;
24567;SDS011;12731;52.182;8.716;2022-08-19T06:19:33;22.35;;;16.75;;
24567;SDS011;12731;52.182;8.716;2022-08-19T06:22:06;21.23;;;16.05;;
24567;SDS011;12731;52.182;8.716;2022-08-19T06:24:32;15.40;;;13.40;;
24567;SDS011;12731;52.182;8.716;2022-08-19T06:26:59;15.57;;;12.30;;
24567;SDS011;12731;52.182;8.716;2022-08-19T06:29:27;14.57;;;12.90;;
24567;SDS011;12731;52.182;8.716;2022-08-19T06:31:54;15.57;;;10.82;;
24567;SDS011;12731;52.182;8.716;2022-08-19T06:34:22;14.57;;;12.13;;
24567;SDS011;12731;52.182;8.716;2022-08-19T06:36:49;13.50;;;11.57;;
24567;SDS011;12731;52.182;8.716;2022-08-19T06:39:18;13.77;;;12.13;;
24567;SDS011;12731;52.182;8.716;2022-08-19T06:41:48;10.57;;;9.50;;
24567;SDS011;12731;52.182;8.716;2022-08-19T06:44:21;13.38;;;10.85;;
24567;SDS011;12731;52.182;8.716;2022-08-19T06:46:51;11.40;;;9.35;;
24567;SDS011;12731;52.182;8.716;2022-08-19T06:49:20;15.45;;;10.00;;
24567;SDS011;12731;52.182;8.716;2022-08-19T06:51:48;12.15;;;10.05;;
24567;SDS011;12731;52.182;8.716;2022-08-19T06:54:17;12.65;;;10.38;;
24567;SDS011;12731;52.182;8.716;2022-08-19T06:56:45;13.02;;;10.02;;
24567;SDS011;12731;52.182;8.716;2022-08-19T06:59:14;10.90;;;9.73;;
24567;SDS011;12731;52.182;8.716;2022-08-19T07:01:50;11.40;;;10.25;;
24567;SDS011;12731;52.182;8.716;2022-08-19T07:04:23;13.07;;;9.05;;
24567;SDS011;12731;52.182;8.716;2022-08-19T07:06:59;10.68;;;9.60;;
24567;SDS011;12731;52.182;8.716;2022-08-19T07:09:46;11.60;;;9.25;;
24567;SDS011;12731;52.182;8.716;2022-08-19T07:12:25;10.90;;;8.80;;
24567;SDS011;12731;52.182;8.716;2022-08-19T07:14:54;9.50;;;8.50;;
24567;SDS011;12731;52.182;8.716;2022-08-19T07:17:21;9.80;;;7.53;;
24567;SDS011;12731;52.182;8.716;2022-08-19T07:19:47;10.65;;;6.85;;
24567;SDS011;12731;52.182;8.716;2022-08-19T07:22:19;8.07;;;6.93;;
24567;SDS011;12731;52.182;8.716;2022-08-19T07:24:48;8.65;;;7.63;;
24567;SDS011;12731;52.182;8.716;2022-08-19T07:27:16;11.43;;;7.35;;
24567;SDS011;12731;52.182;8.716;2022-08-19T07:29:49;9.27;;;7.43;;
24567;SDS011;12731;52.182;8.716;2022-08-19T07:32:21;8.40;;;7.22;;
24567;SDS011;12731;52.182;8.716;2022-08-19T07:34:48;8.23;;;7.43;;
24567;SDS011;12731;52.182;8.716;2022-08-19T07:37:15;11.85;;;7.20;;
24567;SDS011;12731;52.182;8.716;2022-08-19T07:39:42;6.70;;;6.10;;
24567;SDS011;12731;52.182;8.716;2022-08-19T07:42:09;6.75;;;4.90;;
24567;SDS011;12731;52.182;8.716;2022-08-19T07:44:38;6.25;;;5.28;;
24567;SDS011;12731;52.182;8.716;2022-08-19T07:47:06;5.50;;;5.00;;
24567;SDS011;12731;52.182;8.716;2022-08-19T07:49:43;7.03;;;4.20;;
24567;SDS011;12731;52.182;8.716;2022-08-19T07:52:09;5.75;;;4.15;;
24567;SDS011;12731;52.182;8.716;2022-08-19T07:54:37;5.25;;;4.75;;
24567;SDS011;12731;52.182;8.716;2022-08-19T07:57:05;5.55;;;4.28;;
24567;SDS011;12731;52.182;8.716;2022-08-19T07:59:33;5.82;;;4.97;;
24567;SDS011;12731;52.182;8.716;2022-08-19T08:01:59;5.60;;;4.60;;
24567;SDS011;12731;52.182;8.716;2022-08-19T08:04:27;5.10;;;4.13;;
24567;SDS011;12731;52.182;8.716;2022-08-19T08:07:13;6.53;;;4.35;;
24567;SDS011;12731;52.182;8.716;2022-08-19T08:09:58;4.60;;;4.20;;
24567;SDS011;12731;52.182;8.716;2022-08-19T08:12:34;6.22;;;4.60;;
24567;SDS011;12731;52.182;8.716;2022-08-19T08:15:09;6.15;;;4.35;;
24567;SDS011;12731;52.182;8.716;2022-08-19T08:17:42;5.22;;;3.90;;
24567;SDS011;12731;52.182;8.716;2022-08-19T08:20:16;6.50;;;3.78;;
24567;SDS011;12731;52.182;8.716;2022-08-19T08:22:45;4.90;;;3.58;;
24567;SDS011;12731;52.182;8.716;2022-08-19T08:25:31;5.35;;;3.70;;
24567;SDS011;12731;52.182;8.716;2022-08-19T08:28:00;5.45;;;3.33;;
24567;SDS011;12731;52.182;8.716;2022-08-19T08:30:28;3.22;;;2.60;;
24567;SDS011;12731;52.182;8.716;2022-08-19T08:32:58;4.03;;;2.47;;
24567;SDS011;12731;52.182;8.716;2022-08-19T08:35:25;5.95;;;4.20;;
24567;SDS011;12731;52.182;8.716;2022-08-19T08:37:52;3.80;;;3.40;;
24567;SDS011;12731;52.182;8.716;2022-08-19T08:40:33;5.20;;;3.85;;
24567;SDS011;12731;52.182;8.716;2022-08-19T08:46:04;4.55;;;2.78;;
24567;SDS011;12731;52.182;8.716;2022-08-19T08:51:38;4.80;;;3.00;;
24567;SDS011;12731;52.182;8.716;2022-08-19T08:54:14;3.95;;;2.65;;
24567;SDS011;12731;52.182;8.716;2022-08-19T08:56:44;4.28;;;3.13;;
24567;SDS011;12731;52.182;8.716;2022-08-19T08:59:14;3.92;;;2.38;;
24567;SDS011;12731;52.182;8.716;2022-08-19T09:01:45;3.95;;;2.45;;
24567;SDS011;12731;52.182;8.716;2022-08-19T09:04:11;2.50;;;2.08;;
24567;SDS011;12731;52.182;8.716;2022-08-19T09:06:40;2.50;;;1.90;;
24567;SDS011;12731;52.182;8.716;2022-08-19T09:12:01;3.75;;;2.00;;
24567;SDS011;12731;52.182;8.716;2022-08-19T09:17:16;2.30;;;2.03;;
24567;SDS011;12731;52.182;8.716;2022-08-19T09:19:55;3.45;;;2.25;;
24567;SDS011;12731;52.182;8.716;2022-08-19T09:22:24;3.38;;;2.55;;
24567;SDS011;12731;52.182;8.716;2022-08-19T09:24:53;3.85;;;2.83;;
24567;SDS011;12731;52.182;8.716;2022-08-19T09:27:20;4.03;;;2.60;;
24567;SDS011;12731;52.182;8.716;2022-08-19T09:30:10;4.00;;;2.15;;
24567;SDS011;12731;52.182;8.716;2022-08-19T09:32:39;3.10;;;1.90;;
24567;SDS011;12731;52.182;8.716;2022-08-19T09:35:08;2.80;;;2.05;;
24567;SDS011;12731;52.182;8.716;2022-08-19T09:37:35;2.50;;;2.08;;
24567;SDS011;12731;52.182;8.716;2022-08-19T09:40:03;2.08;;;1.77;;
24567;SDS011;12731;52.182;8.716;2022-08-19T09:42:30;3.25;;;2.20;;
24567;SDS011;12731;52.182;8.716;2022-08-19T09:45:00;3.10;;;2.10;;
24567;SDS011;12731;52.182;8.716;2022-08-19T09:47:30;5.18;;;2.38;;
24567;SDS011;12731;52.182;8.716;2022-08-19T09:49:56;3.38;;;2.08;;
24567;SDS011;12731;52.182;8.716;2022-08-19T09:52:24;2.88;;;2.00;;
24567;SDS011;12731;52.182;8.716;2022-08-19T09:54:57;3.50;;;2.05;;
24567;SDS011;12731;52.182;8.716;2022-08-19T09:57:24;2.50;;;2.30;;
24567;SDS011;12731;52.182;8.716;2022-08-19T09:59:50;4.00;;;2.17;;
24567;SDS011;12731;52.182;8.716;2022-08-19T10:02:17;2.83;;;2.22;;
24567;SDS011;12731;52.182;8.716;2022-08-19T10:04:47;3.55;;;1.92;;
24567;SDS011;12731;52.182;8.716;2022-08-19T10:07:32;3.38;;;2.17;;
24567;SDS011;12731;52.182;8.716;2022-08-19T10:10:03;1.90;;;1.80;;
24567;SDS011;12731;52.182;8.716;2022-08-19T10:12:33;2.55;;;1.88;;
24567;SDS011;12731;52.182;8.716;2022-08-19T10:15:00;2.67;;;2.22;;
24567;SDS011;12731;52.182;8.716;2022-08-19T10:17:27;2.60;;;2.00;;
24567;SDS011;12731;52.182;8.716;2022-08-19T10:19:58;3.07;;;1.97;;
24567;SDS011;12731;52.182;8.716;2022-08-19T10:22:26;4.13;;;2.10;;
24567;SDS011;12731;52.182;8.716;2022-08-19T10:24:52;2.63;;;1.67;;
24567;SDS011;12731;52.182;8.716;2022-08-19T10:27:19;3.17;;;1.67;;
24567;SDS011;12731;52.182;8.716;2022-08-19T10:29:46;2.38;;;1.67;;
24567;SDS011;12731;52.182;8.716;2022-08-19T10:32:13;2.38;;;1.80;;
24567;SDS011;12731;52.182;8.716;2022-08-19T10:34:41;2.38;;;2.00;;
24567;SDS011;12731;52.182;8.716;2022-08-19T10:37:15;3.28;;;2.10;;
24567;SDS011;12731;52.182;8.716;2022-08-19T10:39:57;3.10;;;1.85;;
24567;SDS011;12731;52.182;8.716;2022-08-19T10:42:24;2.75;;;1.70;;
24567;SDS011;12731;52.182;8.716;2022-08-19T10:44:50;2.45;;;2.10;;
24567;SDS011;12731;52.182;8.716;2022-08-19T10:47:17;2.05;;;1.80;;
24567;SDS011;12731;52.182;8.716;2022-08-19T10:49:51;2.55;;;1.92;;
24567;SDS011;12731;52.182;8.716;2022-08-19T10:52:38;2.85;;;2.10;;
24567;SDS011;12731;52.182;8.716;2022-08-19T10:55:15;2.70;;;2.05;;
24567;SDS011;12731;52.182;8.716;2022-08-19T10:58:00;11.77;;;2.63;;
24567;SDS011;12731;52.182;8.716;2022-08-19T11:00:28;3.40;;;2.13;;
24567;SDS011;12731;52.182;8.716;2022-08-19T11:02:55;2.90;;;2.60;;
24567;SDS011;12731;52.182;8.716;2022-08-19T11:05:21;5.30;;;2.53;;
24567;SDS011;12731;52.182;8.716;2022-08-19T11:07:49;3.95;;;2.25;;
24567;SDS011;12731;52.182;8.716;2022-08-19T11:10:16;2.20;;;2.00;;
24567;SDS011;12731;52.182;8.716;2022-08-19T11:12:47;4.03;;;1.92;;
24567;SDS011;12731;52.182;8.716;2022-08-19T11:15:14;2.60;;;2.25;;
24567;SDS011;12731;52.182;8.716;2022-08-19T11:17:41;4.75;;;2.15;;
24567;SDS011;12731;52.182;8.716;2022-08-19T11:20:08;3.42;;;2.03;;
24567;SDS011;12731;52.182;8.716;2022-08-19T11:22:36;3.00;;;2.25;;
24567;SDS011;12731;52.182;8.716;2022-08-19T11:25:07;4.63;;;2.22;;
24567;SDS011;12731;52.182;8.716;2022-08-19T11:27:37;2.53;;;2.15;;
24567;SDS011;12731;52.182;8.716;2022-08-19T11:30:05;2.95;;;2.13;;
24567;SDS011;12731;52.182;8.716;2022-08-19T11:32:38;2.65;;;1.80;;
24567;SDS011;12731;52.182;8.716;2022-08-19T11:35:05;4.80;;;1.90;;
24567;SDS011;12731;52.182;8.716;2022-08-19T11:37:31;2.30;;;2.10;;
24567;SDS011;12731;52.182;8.716;2022-08-19T11:40:04;1.92;;;1.80;;
24567;SDS011;12731;52.182;8.716;2022-08-19T11:42:31;2.08;;;1.70;;
24567;SDS011;12731;52.182;8.716;2022-08-19T11:45:16;3.10;;;1.52;;
24567;SDS011;12731;52.182;8.716;2022-08-19T11:47:43;1.63;;;1.50;;
24567;SDS011;12731;52.182;8.716;2022-08-19T11:50:10;5.38;;;1.73;;
24567;SDS011;12731;52.182;8.716;2022-08-19T11:52:36;1.95;;;1.40;;
24567;SDS011;12731;52.182;8.716;2022-08-19T11:55:03;1.98;;;1.30;;
24567;SDS011;12731;52.182;8.716;2022-08-19T11:57:30;1.95;;;1.52;;
24567;SDS011;12731;52.182;8.716;2022-08-19T11:59:57;2.15;;;1.40;;
24567;SDS011;12731;52.182;8.716;2022-08-19T12:02:23;2.53;;;1.58;;
24567;SDS011;12731;52.182;8.716;2022-08-19T12:04:50;1.77;;;1.60;;
24567;SDS011;12731;52.182;8.716;2022-08-19T12:07:16;1.77;;;1.50;;
24567;SDS011;12731;52.182;8.716;2022-08-19T12:09:43;2.92;;;1.50;;
24567;SDS011;12731;52.182;8.716;2022-08-19T12:12:11;2.00;;;1.45;;
24567;SDS011;12731;52.182;8.716;2022-08-19T12:14:37;2.75;;;1.55;;
24567;SDS011;12731;52.182;8.716;2022-08-19T12:17:04;2.65;;;1.70;;
24567;SDS011;12731;52.182;8.716;2022-08-19T12:19:33;2.75;;;1.55;;
24567;SDS011;12731;52.182;8.716;2022-08-19T12:22:02;3.15;;;1.60;;
24567;SDS011;12731;52.182;8.716;2022-08-19T12:24:32;1.88;;;1.73;;
24567;SDS011;12731;52.182;8.716;2022-08-19T12:26:59;2.05;;;1.50;;
24567;SDS011;12731;52.182;8.716;2022-08-19T12:29:28;2.55;;;1.58;;
24567;SDS011;12731;52.182;8.716;2022-08-19T12:31:56;4.07;;;1.80;;
24567;SDS011;12731;52.182;8.716;2022-08-19T12:34:30;3.42;;;1.55;;
24567;SDS011;12731;52.182;8.716;2022-08-19T12:36:58;3.95;;;2.20;;
24567;SDS011;12731;52.182;8.716;2022-08-19T12:39:26;2.40;;;2.20;;
24567;SDS011;12731;52.182;8.716;2022-08-19T12:41:53;2.28;;;2.00;;
24567;SDS011;12731;52.182;8.716;2022-08-19T12:44:21;2.83;;;2.05;;
24567;SDS011;12731;52.182;8.716;2022-08-19T12:46:58;3.03;;;1.67;;
24567;SDS011;12731;52.182;8.716;2022-08-19T12:49:27;3.33;;;1.80;;
24567;SDS011;12731;52.182;8.716;2022-08-19T12:52:17;2.30;;;2.08;;
24567;SDS011;12731;52.182;8.716;2022-08-19T12:54:48;1.70;;;1.60;;
24567;SDS011;12731;52.182;8.716;2022-08-19T12:57:19;1.73;;;1.63;;
24567;SDS011;12731;52.182;8.716;2022-08-19T12:59:48;2.75;;;1.75;;
24567;SDS011;12731;52.182;8.716;2022-08-19T13:02:19;2.33;;;1.67;;
24567;SDS011;12731;52.182;8.716;2022-08-19T13:04:46;2.22;;;1.58;;
24567;SDS011;12731;52.182;8.716;2022-08-19T13:07:13;2.55;;;1.90;;
24567;SDS011;12731;52.182;8.716;2022-08-19T13:09:40;3.03;;;2.00;;
24567;SDS011;12731;52.182;8.716;2022-08-19T13:12:08;3.28;;;2.08;;
24567;SDS011;12731;52.182;8.716;2022-08-19T13:14:39;2.78;;;2.17;;
24567;SDS011;12731;52.182;8.716;2022-08-19T13:17:06;2.10;;;1.70;;
24567;SDS011;12731;52.182;8.716;2022-08-19T13:19:35;3.75;;;1.80;;
24567;SDS011;12731;52.182;8.716;2022-08-19T13:22:02;2.35;;;1.92;;
24567;SDS011;12731;52.182;8.716;2022-08-19T13:24:29;2.33;;;1.98;;
24567;SDS011;12731;52.182;8.716;2022-08-19T13:26:59;3.72;;;1.85;;
24567;SDS011;12731;52.182;8.716;2022-08-19T13:29:26;2.75;;;2.03;;
24567;SDS011;12731;52.182;8.716;2022-08-19T13:32:11;3.45;;;2.20;;
24567;SDS011;12731;52.182;8.716;2022-08-19T13:34:57;3.03;;;2.15;;
24567;SDS011;12731;52.182;8.716;2022-08-19T13:37:23;4.50;;;2.22;;
24567;SDS011;12731;52.182;8.716;2022-08-19T13:40:28;4.50;;;2.15;;
24567;SDS011;12731;52.182;8.716;2022-08-19T13:43:01;2.17;;;2.00;;
24567;SDS011;12731;52.182;8.716;2022-08-19T13:45:42;2.40;;;1.90;;
24567;SDS011;12731;52.182;8.716;2022-08-19T13:48:09;2.53;;;1.90;;
24567;SDS011;12731;52.182;8.716;2022-08-19T13:50:40;3.28;;;2.10;;
24567;SDS011;12731;52.182;8.716;2022-08-19T13:53:09;2.40;;;2.20;;
24567;SDS011;12731;52.182;8.716;2022-08-19T13:55:37;3.17;;;2.15;;
24567;SDS011;12731;52.182;8.716;2022-08-19T13:58:05;4.32;;;2.20;;
24567;SDS011;12731;52.182;8.716;2022-08-19T14:00:33;4.60;;;2.15;;
24567;SDS011;12731;52.182;8.716;2022-08-19T14:03:02;3.20;;;1.95;;
24567;SDS011;12731;52.182;8.716;2022-08-19T14:05:34;2.88;;;1.98;;
24567;SDS011;12731;52.182;8.716;2022-08-19T14:08:00;5.60;;;2.22;;
24567;SDS011;12731;52.182;8.716;2022-08-19T14:10:27;4.85;;;2.13;;
24567;SDS011;12731;52.182;8.716;2022-08-19T14:12:55;2.53;;;2.20;;
24567;SDS011;12731;52.182;8.716;2022-08-19T14:15:24;2.30;;;2.03;;
24567;SDS011;12731;52.182;8.716;2022-08-19T14:17:51;3.10;;;2.00;;
24567;SDS011;12731;52.182;8.716;2022-08-19T14:20:18;2.47;;;2.20;;
24567;SDS011;12731;52.182;8.716;2022-08-19T14:22:45;4.20;;;2.22;;
24567;SDS011;12731;52.182;8.716;2022-08-19T14:25:14;3.10;;;1.88;;
24567;SDS011;12731;52.182;8.716;2022-08-19T14:27:46;4.57;;;2.35;;
24567;SDS011;12731;52.182;8.716;2022-08-19T14:30:16;4.20;;;2.50;;
24567;SDS011;12731;52.182;8.716;2022-08-19T14:32:44;2.90;;;1.83;;
24567;SDS011;12731;52.182;8.716;2022-08-19T14:35:11;3.40;;;2.00;;
24567;SDS011;12731;52.182;8.716;2022-08-19T14:37:38;2.88;;;1.98;;
24567;SDS011;12731;52.182;8.716;2022-08-19T14:40:11;3.83;;;2.20;;
24567;SDS011;12731;52.182;8.716;2022-08-19T14:42:40;3.92;;;2.17;;
24567;SDS011;12731;52.182;8.716;2022-08-19T14:45:08;3.33;;;2.30;;
24567;SDS011;12731;52.182;8.716;2022-08-19T14:47:35;4.07;;;2.50;;
24567;SDS011;12731;52.182;8.716;2022-08-19T14:50:06;4.97;;;2.28;;
24567;SDS011;12731;52.182;8.716;2022-08-19T14:52:43;5.43;;;2.60;;
24567;SDS011;12731;52.182;8.716;2022-08-19T14:55:09;4.57;;;2.00;;
24567;SDS011;12731;52.182;8.716;2022-08-19T14:57:36;2.88;;;2.10;;
24567;SDS011;12731;52.182;8.716;2022-08-19T15:00:03;2.30;;;1.77;;
24567;SDS011;12731;52.182;8.716;2022-08-19T15:02:30;4.78;;;2.17;;
24567;SDS011;12731;52.182;8.716;2022-08-19T15:05:00;2.60;;;2.08;;